Time;durP1;ratioP1;P1;durP2;ratioP2;P2;SDS_P1;SDS_P2;PMS_P1;PMS_P2;Temp;Humidity;BMP_temperature;BMP_pressure;BME280_temperature;BME280_humidity;BME280_pressure;Samples;Min_cycle;Max_cycle;Signal;HPM_P1;HPM_P2
2024/03/23 07:30:01;;;;;;;6.55;4.30;;;;;;;11.30;66.07;94419.09;6215742;22;20044;-88
2024/03/23 07:32:30;;;;;;;8.73;4.97;;;;;;;11.47;65.34;94416.06;6157358;23;20073;-88
2024/03/23 07:34:55;;;;;;;6.72;5.00;;;;;;;11.62;64.73;94402.84;6132635;23;20044;-87
2024/03/23 07:37:23;;;;;;;7.85;4.60;;;;;;;11.70;64.46;94394.78;6156896;23;20023;-88
2024/03/23 08:21:02;;;;;;;6.80;5.10;;;;;;;12.86;61.30;94495.66;6232054;22;20047;-90
2024/03/23 08:23:29;;;;;;;5.57;4.70;;;;;;;13.03;60.61;94521.25;6219170;23;20004;-89
2024/03/23 08:25:59;;;;;;;5.68;4.50;;;;;;;12.84;60.91;94489.03;6218381;23;20004;-88
2024/03/23 08:28:25;;;;;;;6.47;4.23;;;;;;;12.95;60.59;94498.03;6218410;23;20008;-88
2024/03/23 08:30:51;;;;;;;6.00;3.90;;;;;;;12.78;60.53;94508.16;6218253;23;20008;-89
2024/03/23 08:33:17;;;;;;;4.50;4.10;;;;;;;12.99;60.27;94522.69;6193543;23;20015;-88
2024/03/23 08:35:42;;;;;;;4.97;3.78;;;;;;;12.95;59.79;94524.13;6193427;23;20011;-89
2024/03/23 08:38:13;;;;;;;4.38;3.80;;;;;;;13.00;60.17;94526.91;6193592;23;20012;-88
2024/03/23 08:40:38;;;;;;;2.95;2.15;;;;;;;13.09;57.98;94562.19;6217701;23;20011;-86
2024/03/23 08:43:06;;;;;;;3.05;1.10;;;;;;;12.55;56.80;94590.31;6192639;23;20012;-88
2024/03/23 08:45:32;;;;;;;0.60;0.50;;;;;;;12.10;56.36;94585.78;6192382;23;20079;-87
2024/03/23 08:47:57;;;;;;;1.67;0.60;;;;;;;11.90;56.45;94579.78;6192713;23;20055;-87
2024/03/23 08:50:25;;;;;;;0.73;0.47;;;;;;;11.70;56.78;94606.59;6167774;23;20031;-87
2024/03/23 08:52:51;;;;;;;0.57;0.57;;;;;;;11.61;57.77;94628.63;6218670;23;19996;-88
2024/03/23 15:00:04;;;;;;;2.75;0.70;;;;;;;14.26;37.60;94577.47;6176266;22;1526003;-90
2024/03/23 15:02:31;;;;;;;3.05;1.05;;;;;;;14.27;36.77;94579.84;6196418;23;20023;-90
2024/03/23 15:04:57;;;;;;;3.42;0.95;;;;;;;14.24;35.69;94582.09;6221090;23;20110;-90
2024/03/23 15:07:23;;;;;;;5.47;0.80;;;;;;;14.13;36.89;94585.44;6220585;23;20052;-89
2024/03/23 15:09:51;;;;;;;3.15;0.70;;;;;;;14.24;34.52;94574.25;6171171;23;20016;-88
2024/03/23 15:12:18;;;;;;;2.60;0.88;;;;;;;14.15;34.91;94571.13;6170877;23;20012;-91
2024/03/23 15:14:44;;;;;;;1.88;0.80;;;;;;;14.13;36.98;94578.38;6171325;23;20024;-89
2024/03/23 15:22:10;;;;;;;2.95;1.00;;;;;;;14.34;33.92;94552.84;6201619;23;20031;-88
2024/03/23 15:24:38;;;;;;;4.20;0.90;;;;;;;14.24;34.94;94556.75;6195510;23;20008;-89
2024/03/23 15:27:07;;;;;;;3.60;0.77;;;;;;;14.07;35.37;94563.56;6220153;23;20016;-87
2024/03/23 15:29:32;;;;;;;4.03;0.95;;;;;;;14.20;35.06;94570.47;6196479;23;20004;-88
2024/03/23 15:31:58;;;;;;;2.13;0.90;;;;;;;13.81;35.48;94560.13;6219730;23;20066;-89
2024/03/23 15:34:24;;;;;;;1.95;0.80;;;;;;;14.24;33.83;94543.69;6220362;23;20087;-88
2024/03/23 15:36:50;;;;;;;2.22;0.70;;;;;;;14.31;35.17;94555.88;6194500;23;20004;-88
2024/03/23 15:39:17;;;;;;;2.15;0.73;;;;;;;13.91;35.64;94549.19;6219666;23;20001;-86
2024/03/23 15:41:44;;;;;;;1.77;0.75;;;;;;;14.20;36.60;94554.75;6195092;23;20009;-88
2024/03/23 15:44:14;;;;;;;2.85;0.90;;;;;;;14.10;34.97;94541.41;6219283;23;20008;-89
2024/03/23 15:46:40;;;;;;;4.13;0.88;;;;;;;14.18;35.08;94554.19;6194972;23;20027;-89
2024/03/23 15:49:06;;;;;;;3.42;1.17;;;;;;;14.23;34.85;94556.97;6194075;23;20008;-88
2024/03/23 15:51:36;;;;;;;2.08;0.93;;;;;;;14.10;35.35;94549.25;6195486;23;20099;-88
2024/03/23 15:54:02;;;;;;;3.72;0.95;;;;;;;14.00;35.45;94534.84;6219678;23;20000;-88
2024/03/23 15:56:31;;;;;;;5.03;1.05;;;;;;;13.76;36.06;94536.44;6219965;23;20020;-89
2024/03/23 15:59:04;;;;;;;3.00;0.90;;;;;;;13.80;35.54;94544.66;6218917;23;20023;-88
2024/03/23 16:01:29;;;;;;;5.30;1.10;;;;;;;13.65;35.50;94544.97;6213363;23;20004;-89
2024/03/23 16:03:55;;;;;;;3.33;1.20;;;;;;;13.46;35.95;94534.47;6206245;23;20021;-89
2024/03/23 16:06:21;;;;;;;2.90;1.00;;;;;;;13.34;36.56;94532.75;6163330;23;20009;-88
2024/03/23 16:08:46;;;;;;;5.18;1.20;;;;;;;13.37;36.53;94540.97;6138919;23;20123;-89
2024/03/23 16:11:11;;;;;;;3.10;1.00;;;;;;;13.32;36.58;94532.97;6164190;23;20016;-89
2024/03/23 16:13:40;;;;;;;2.72;0.90;;;;;;;13.41;35.62;94555.22;6188824;23;20083;-89
2024/03/23 16:16:09;;;;;;;3.92;1.40;;;;;;;13.30;36.96;94561.91;6189376;23;20088;-89
2024/03/23 16:18:36;;;;;;;2.35;1.02;;;;;;;12.96;35.85;94562.25;6163733;23;20008;-88
2024/03/23 16:21:03;;;;;;;3.38;0.90;;;;;;;12.73;36.00;94555.72;6187969;23;20005;-89
2024/03/23 16:23:29;;;;;;;2.50;1.33;;;;;;;12.47;37.36;94562.66;6186589;23;20001;-90
2024/03/23 16:25:56;;;;;;;3.67;1.23;;;;;;;12.40;38.13;94561.84;6164027;23;20008;-89
2024/03/23 16:28:32;;;;;;;3.90;1.20;;;;;;;12.40;38.90;94569.69;6188743;23;20009;-88
2024/03/23 16:31:06;;;;;;;2.97;0.88;;;;;;;12.31;38.08;94561.25;6188671;23;20072;-89
2024/03/23 16:33:32;;;;;;;4.30;0.93;;;;;;;12.21;38.19;94549.69;6165600;23;20063;-90
2024/03/23 16:36:05;;;;;;;3.70;1.02;;;;;;;12.13;38.98;94559.31;6188396;23;20012;-88
2024/03/23 16:38:34;;;;;;;3.58;0.90;;;;;;;12.25;38.30;94556.88;6188343;23;20000;-89
2024/03/23 16:41:07;;;;;;;5.35;1.08;;;;;;;12.28;38.32;94561.69;6164537;23;20008;-90
2024/03/23 16:43:34;;;;;;;2.08;1.00;;;;;;;12.30;38.31;94569.31;6188796;23;20031;-89
2024/03/23 16:46:03;;;;;;;3.33;1.15;;;;;;;12.39;37.85;94564.66;6189021;23;20035;-88
2024/03/23 16:48:29;;;;;;;2.67;0.80;;;;;;;12.24;36.93;94570.94;6188321;23;20012;-86
2024/03/23 16:51:05;;;;;;;2.45;0.90;;;;;;;12.22;37.15;94566.91;6188506;23;20012;-86
2024/03/23 16:53:31;;;;;;;3.75;1.00;;;;;;;12.18;38.04;94571.72;6189421;23;20014;-86
2024/03/23 16:56:02;;;;;;;3.72;0.98;;;;;;;11.95;38.86;94569.53;6141948;23;20083;-87
2024/03/23 16:58:32;;;;;;;3.35;1.10;;;;;;;12.02;38.60;94562.53;6193653;23;20060;-89
2024/03/23 17:01:09;;;;;;;1.70;0.80;;;;;;;12.01;38.55;94566.13;6149371;23;20012;-88
2024/03/23 17:03:36;;;;;;;2.60;0.90;;;;;;;11.94;37.82;94567.97;6195270;23;20051;-88
2024/03/23 17:06:05;;;;;;;5.70;0.90;;;;;;;11.88;37.95;94572.13;6197313;23;20012;-88
2024/03/23 17:08:32;;;;;;;2.05;0.90;;;;;;;12.01;39.37;94566.13;6198716;23;20005;-88
2024/03/23 17:10:59;;;;;;;2.75;1.00;;;;;;;11.99;38.47;94556.91;6191247;23;20032;-88
2024/03/23 17:13:25;;;;;;;3.60;0.90;;;;;;;11.72;38.92;94543.88;6191563;23;20009;-88
2024/03/23 17:15:50;;;;;;;2.78;0.85;;;;;;;11.70;39.28;94554.50;6141492;23;20075;-89
2024/03/23 17:18:15;;;;;;;4.88;1.05;;;;;;;11.59;38.82;94536.84;6167314;23;20001;-90
2024/03/23 17:20:41;;;;;;;2.80;1.15;;;;;;;11.69;38.07;94558.13;6167663;23;20005;-88
2024/03/23 17:23:06;;;;;;;3.92;1.13;;;;;;;11.68;38.25;94561.69;6167315;23;20016;-88
2024/03/23 17:25:32;;;;;;;5.93;3.75;;;;;;;11.55;38.32;94546.88;6192628;23;20039;-89
2024/03/23 17:27:58;;;;;;;6.88;4.00;;;;;;;11.63;38.86;94563.31;6193613;23;20083;-89
2024/03/23 17:30:23;;;;;;;5.53;2.38;;;;;;;11.47;38.30;94567.91;6168319;23;20009;-88
2024/03/23 17:32:49;;;;;;;5.15;2.40;;;;;;;11.36;38.81;94558.06;6168547;23;20036;-89
2024/03/23 17:35:14;;;;;;;5.75;1.35;;;;;;;11.57;37.24;94564.91;6193939;23;20013;-89
2024/03/23 17:37:42;;;;;;;6.22;1.20;;;;;;;11.43;37.67;94560.69;6195188;23;20031;-89
2024/03/23 17:40:08;;;;;;;4.00;0.88;;;;;;;11.11;38.29;94553.41;6170272;23;20040;-89
2024/03/23 17:42:38;;;;;;;4.63;1.25;;;;;;;11.13;38.66;94574.06;6195626;23;20013;-89
2024/03/23 17:47:40;;;;;;;3.97;1.20;;;;;;;10.79;39.39;94549.72;6228858;23;20016;-90
2024/03/23 17:50:06;;;;;;;4.25;1.20;;;;;;;10.63;40.18;94563.88;6233008;23;20004;-89
2024/03/23 17:52:33;;;;;;;4.70;1.15;;;;;;;10.48;40.53;94555.41;6232518;23;20000;-89
2024/03/23 17:54:59;;;;;;;2.13;0.90;;;;;;;10.59;40.96;94560.06;6233598;23;20008;-89
2024/03/23 17:57:25;;;;;;;5.38;2.10;;;;;;;10.33;42.43;94556.31;6234079;23;20031;-90
2024/03/23 17:59:54;;;;;;;7.18;3.72;;;;;;;10.48;41.35;94568.41;6208654;23;20012;-89
2024/03/23 18:02:20;;;;;;;4.05;2.92;;;;;;;10.54;40.29;94565.84;6231190;23;20008;-89
2024/03/23 18:04:46;;;;;;;8.07;2.83;;;;;;;10.65;40.37;94561.09;6198967;23;20084;-89
2024/03/23 18:07:11;;;;;;;3.88;1.40;;;;;;;10.85;39.69;94567.19;6176860;23;20093;-90
2024/03/23 18:09:37;;;;;;;3.45;1.17;;;;;;;10.78;39.30;94555.94;6176590;23;20028;-90
2024/03/23 18:12:04;;;;;;;3.67;1.20;;;;;;;10.69;39.99;94560.50;6150704;23;20012;-89
2024/03/23 18:14:30;;;;;;;4.03;1.27;;;;;;;10.90;39.80;94569.97;6174105;23;20012;-89
2024/03/23 18:16:55;;;;;;;3.80;1.52;;;;;;;10.77;39.54;94543.91;6200677;23;20080;-89
2024/03/23 18:19:21;;;;;;;1.65;1.00;;;;;;;10.71;39.38;94565.50;6201835;23;20000;-90
2024/03/23 18:21:46;;;;;;;5.47;2.00;;;;;;;10.75;39.79;94564.13;6176644;23;20117;-89
2024/03/23 18:24:12;;;;;;;4.70;1.60;;;;;;;10.74;40.92;94570.34;6201485;23;20056;-89
2024/03/23 18:26:37;;;;;;;5.68;2.63;;;;;;;10.68;40.48;94578.88;6202321;23;20015;-90
2024/03/23 18:29:03;;;;;;;8.02;5.32;;;;;;;10.53;41.68;94574.63;6201247;23;20009;-90
2024/03/23 18:31:29;;;;;;;10.90;7.15;;;;;;;10.53;41.60;94569.44;6175987;23;20091;-89
2024/03/23 18:33:56;;;;;;;4.85;3.70;;;;;;;10.59;42.27;94580.06;6201752;23;20008;-89
2024/03/23 18:36:23;;;;;;;3.90;1.63;;;;;;;10.54;42.48;94576.22;6200783;23;20004;-90
2024/03/23 18:38:48;;;;;;;5.82;2.55;;;;;;;10.68;42.63;94573.69;6200048;23;20000;-89
2024/03/23 18:41:14;;;;;;;3.83;1.20;;;;;;;10.67;40.73;94579.91;6175455;23;20011;-89
2024/03/23 18:43:39;;;;;;;3.67;0.90;;;;;;;10.51;41.84;94586.25;6175343;23;20063;-89
2024/03/23 18:46:05;;;;;;;8.18;1.27;;;;;;;10.39;42.37;94578.16;6174181;23;20017;-88
2024/03/23 18:48:31;;;;;;;5.35;1.00;;;;;;;10.21;43.04;94583.03;6172046;23;20012;-88
2024/03/23 18:50:57;;;;;;;2.97;0.90;;;;;;;10.17;44.18;94612.00;6190696;23;20009;-89
2024/03/23 18:53:22;;;;;;;2.65;1.00;;;;;;;10.13;47.63;94631.56;6190269;23;20111;-89
2024/03/23 18:55:55;;;;;;;4.03;0.98;;;;;;;9.55;50.26;94659.41;6163827;23;20096;-89
2024/03/23 18:58:21;;;;;;;3.33;1.20;;;;;;;9.59;49.86;94671.03;6188205;23;20028;-88
2024/03/23 19:00:47;;;;;;;4.05;1.10;;;;;;;9.28;51.81;94666.13;6163445;23;20012;-88
2024/03/23 19:03:13;;;;;;;1.95;0.75;;;;;;;8.72;53.04;94701.16;6170263;23;20016;-88
2024/03/23 19:05:38;;;;;;;3.22;0.80;;;;;;;8.69;54.02;94731.84;6189404;23;20028;-89
2024/03/23 19:08:04;;;;;;;2.72;0.80;;;;;;;8.13;55.81;94732.94;6187861;23;20019;-87
2024/03/23 19:10:32;;;;;;;1.15;0.60;;;;;;;8.25;54.66;94753.25;6163725;23;20009;-88
2024/03/23 19:12:58;;;;;;;0.60;0.47;;;;;;;7.99;55.03;94749.22;6189377;23;20036;-87
2024/03/23 19:15:26;;;;;;;1.38;0.40;;;;;;;7.44;56.17;94733.72;6191535;23;20015;-89
2024/03/23 19:17:52;;;;;;;1.80;0.50;;;;;;;7.59;56.57;94741.53;6163875;23;20004;-88
2024/03/23 19:20:17;;;;;;;1.42;0.60;;;;;;;7.47;57.07;94739.53;6162445;23;20031;-88
2024/03/23 19:22:43;;;;;;;0.75;0.50;;;;;;;7.73;56.00;94737.44;6138041;23;20028;-87
2024/03/23 19:25:09;;;;;;;1.67;0.50;;;;;;;7.48;56.87;94730.78;6186742;23;20000;-88
2024/03/23 19:27:38;;;;;;;2.08;1.10;;;;;;;7.50;57.09;94741.75;6187213;23;20064;-89
2024/03/23 19:30:05;;;;;;;3.15;1.52;;;;;;;7.39;57.61;94717.91;6162543;23;20013;-86
2024/03/23 19:32:31;;;;;;;1.85;0.68;;;;;;;7.03;58.07;94712.41;6162546;23;20013;-85
2024/03/23 19:34:59;;;;;;;2.55;0.70;;;;;;;7.22;58.48;94711.19;6187013;23;20090;-87
2024/03/23 19:37:24;;;;;;;2.40;0.63;;;;;;;7.15;58.42;94707.66;6164880;23;20036;-86
2024/03/23 19:39:50;;;;;;;2.17;1.40;;;;;;;7.23;58.67;94725.72;6164783;23;20008;-85
2024/03/23 19:42:15;;;;;;;2.53;1.90;;;;;;;7.26;59.00;94727.97;6165541;23;20087;-87
2024/03/23 19:44:44;;;;;;;2.80;0.75;;;;;;;7.36;58.13;94728.56;6190538;23;20012;-87
2024/03/23 19:47:09;;;;;;;2.20;0.60;;;;;;;7.28;59.03;94726.03;6167533;23;20004;-88
2024/03/23 19:49:34;;;;;;;1.75;0.43;;;;;;;7.05;58.88;94715.63;6168400;23;20039;-88
2024/03/23 19:52:03;;;;;;;1.63;0.75;;;;;;;6.81;60.06;94722.47;6144586;23;20016;-88
2024/03/23 19:54:30;;;;;;;2.80;0.68;;;;;;;6.63;60.07;94719.31;6169302;23;20134;-86
2024/03/23 19:56:55;;;;;;;2.30;0.70;;;;;;;6.19;61.70;94715.34;6170648;23;20060;-88
2024/03/23 19:59:21;;;;;;;1.05;0.70;;;;;;;6.50;61.09;94716.44;6169389;23;20012;-88
2024/03/23 20:01:46;;;;;;;0.82;0.50;;;;;;;6.30;61.25;94721.13;6143797;23;20004;-88
2024/03/23 20:04:12;;;;;;;0.60;0.60;;;;;;;6.42;61.22;94715.47;6168031;23;20024;-89
2024/03/23 20:06:42;;;;;;;0.85;0.60;;;;;;;6.61;60.13;94698.81;6145188;23;20059;-89
2024/03/23 20:09:07;;;;;;;1.65;0.60;;;;;;;6.65;60.10;94701.88;6170428;23;20017;-89
2024/03/23 20:11:33;;;;;;;2.35;0.90;;;;;;;6.33;61.61;94688.03;6194527;23;20098;-88
2024/03/23 20:13:58;;;;;;;1.80;0.88;;;;;;;6.22;62.15;94696.94;6194548;23;20011;-87
2024/03/23 20:16:23;;;;;;;2.60;0.85;;;;;;;6.51;60.90;94699.94;6146671;23;20007;-88
2024/03/23 20:18:55;;;;;;;1.38;0.70;;;;;;;5.84;62.38;94701.75;6170250;23;20012;-88
2024/03/23 20:21:21;;;;;;;1.15;0.68;;;;;;;5.69;63.42;94705.94;6170823;23;20012;-88
2024/03/23 20:23:46;;;;;;;1.58;0.77;;;;;;;6.38;61.18;94701.28;6196559;23;20026;-88
2024/03/23 20:26:15;;;;;;;2.03;0.70;;;;;;;6.52;60.12;94694.63;6195756;23;20012;-89
2024/03/23 20:28:40;;;;;;;2.15;0.80;;;;;;;6.74;59.39;94700.88;6146931;23;20027;-88
2024/03/23 20:31:08;;;;;;;1.38;0.90;;;;;;;6.42;61.03;94694.00;6146150;23;20009;-88
2024/03/23 20:33:35;;;;;;;1.00;0.80;;;;;;;6.72;60.42;94705.41;6169205;23;20020;-89
2024/03/23 20:36:01;;;;;;;1.17;0.80;;;;;;;6.95;59.69;94696.91;6169561;23;20016;-89
2024/03/23 20:38:27;;;;;;;1.15;0.68;;;;;;;7.01;59.32;94698.84;6194653;23;20001;-88
2024/03/23 20:40:56;;;;;;;1.15;0.85;;;;;;;7.01;58.42;94684.13;6169959;23;20064;-89
2024/03/23 20:43:25;;;;;;;2.03;0.70;;;;;;;7.20;57.44;94693.25;6194331;23;20019;-89
2024/03/23 20:46:00;;;;;;;2.95;1.13;;;;;;;7.34;57.72;94691.72;6192585;23;20004;-88
2024/03/23 20:48:27;;;;;;;1.23;0.80;;;;;;;7.38;56.78;94685.22;6193254;23;20005;-88
2024/03/23 20:51:03;;;;;;;0.80;0.73;;;;;;;7.40;57.27;94701.38;6169285;23;20013;-88
2024/03/23 20:53:28;;;;;;;1.55;0.88;;;;;;;7.44;57.63;94681.97;6193805;23;20001;-88
2024/03/23 20:55:55;;;;;;;2.45;0.70;;;;;;;7.53;56.95;94680.13;6169127;23;20004;-87
2024/03/23 20:58:25;;;;;;;1.60;0.80;;;;;;;7.67;57.62;94678.56;6195427;23;20011;-88
2024/03/23 21:03:26;;;;;;;1.77;0.93;;;;;;;7.68;58.87;94685.38;6246560;22;20022;-87
2024/03/23 21:05:52;;;;;;;0.90;0.65;;;;;;;7.77;57.24;94681.75;6225427;23;20000;-88
2024/03/23 21:08:17;;;;;;;1.88;0.68;;;;;;;7.59;57.33;94681.22;6225706;23;20008;-88
2024/03/23 21:10:49;;;;;;;2.55;0.80;;;;;;;7.53;58.14;94679.31;6200464;23;20144;-87
2024/03/23 21:13:15;;;;;;;3.15;0.90;;;;;;;7.83;56.96;94675.06;6225815;23;20128;-88
2024/03/23 21:15:46;;;;;;;2.55;0.80;;;;;;;7.95;55.65;94670.28;6177374;23;20007;-88
2024/03/23 21:18:11;;;;;;;;;;;;;;;7.88;54.50;94680.53;6193975;23;20055;-87
2024/03/23 21:20:37;;;;;;;1.35;0.70;;;;;;;7.79;55.00;94656.47;6171697;23;19912;-87
2024/03/23 21:23:02;;;;;;;2.58;0.80;;;;;;;7.66;56.22;94647.69;6170771;23;20043;-87
2024/03/23 21:25:32;;;;;;;2.10;0.60;;;;;;;7.71;56.53;94656.56;6145402;23;20043;-88
2024/03/23 21:27:57;;;;;;;3.30;1.00;;;;;;;7.72;56.22;94671.09;6171207;23;20020;-88
2024/03/23 21:30:23;;;;;;;1.60;0.80;;;;;;;7.32;56.70;94685.91;6170742;23;20017;-88
2024/03/23 21:32:49;;;;;;;4.38;1.10;;;;;;;7.55;57.03;94693.69;6195022;23;20011;-87
2024/03/23 21:35:14;;;;;;;3.17;1.02;;;;;;;7.68;58.05;94711.25;6170882;23;20019;-88
2024/03/23 21:37:40;;;;;;;2.05;0.80;;;;;;;7.48;58.57;94721.22;6195145;23;20000;-88
2024/03/23 21:40:09;;;;;;;1.85;0.80;;;;;;;7.49;58.11;94722.06;6193659;23;20019;-87
2024/03/23 21:42:35;;;;;;;1.05;0.70;;;;;;;7.24;58.45;94727.34;6194482;23;20000;-87
2024/03/23 21:45:00;;;;;;;0.93;0.70;;;;;;;6.75;59.27;94715.41;6168978;23;20004;-87
2024/03/23 21:47:26;;;;;;;1.40;0.80;;;;;;;6.82;59.26;94720.72;6168467;23;20004;-87
2024/03/23 21:49:51;;;;;;;1.35;0.63;;;;;;;6.49;60.14;94707.88;6193164;23;20039;-88
2024/03/23 21:52:16;;;;;;;1.08;0.60;;;;;;;6.61;59.69;94703.97;6167375;23;20034;-87
2024/03/23 21:54:42;;;;;;;2.15;0.70;;;;;;;6.47;60.32;94707.22;6167336;23;20030;-87
2024/03/23 21:57:07;;;;;;;2.42;0.70;;;;;;;6.41;61.07;94719.03;6142953;23;20040;-88
2024/03/23 21:59:33;;;;;;;1.13;0.80;;;;;;;6.06;62.35;94720.19;6168703;23;20028;-88
2024/03/23 22:01:58;;;;;;;0.57;0.57;;;;;;;6.35;60.77;94711.13;6169344;23;20019;-87
2024/03/23 22:04:27;;;;;;;1.60;0.70;;;;;;;6.37;61.00;94704.81;6193780;23;20011;-88
2024/03/23 22:06:53;;;;;;;1.65;0.88;;;;;;;6.04;62.17;94715.19;6144999;23;20016;-88
2024/03/23 22:09:18;;;;;;;1.33;0.60;;;;;;;5.98;61.80;94704.72;6169595;23;20009;-87
2024/03/23 22:11:44;;;;;;;1.17;0.50;;;;;;;5.95;61.36;94710.16;6168330;23;20040;-87
2024/03/23 22:14:09;;;;;;;2.70;0.85;;;;;;;6.06;60.86;94694.38;6194469;23;20035;-87
2024/03/23 22:16:35;;;;;;;1.00;0.55;;;;;;;6.21;60.24;94672.09;6193682;23;20095;-87
2024/03/23 22:19:02;;;;;;;1.48;0.60;;;;;;;5.65;60.99;94665.94;6169803;23;20067;-88
2024/03/23 22:21:27;;;;;;;1.10;0.70;;;;;;;4.94;62.90;94650.03;6171427;23;20020;-87
2024/03/23 22:23:56;;;;;;;0.70;0.70;;;;;;;4.89;63.83;94645.38;6172503;23;20008;-87
2024/03/23 22:28:47;;;;;;;1.55;0.80;;;;;;;4.76;64.25;94641.59;6249697;22;20028;-87
2024/03/23 22:31:12;;;;;;;1.73;0.70;;;;;;;4.83;64.13;94647.75;6202289;23;20058;-88
2024/03/23 22:33:38;;;;;;;1.33;0.70;;;;;;;4.79;64.04;94631.00;6202500;23;20086;-88
2024/03/23 22:36:04;;;;;;;1.85;0.80;;;;;;;4.84;63.79;94639.06;6178035;23;20063;-88
2024/03/23 22:38:29;;;;;;;1.23;0.80;;;;;;;4.63;64.64;94627.41;6201516;23;20008;-88
2024/03/23 22:40:56;;;;;;;1.42;0.70;;;;;;;4.95;63.96;94635.38;6201300;23;20043;-87
2024/03/23 22:43:23;;;;;;;0.93;0.70;;;;;;;4.95;64.65;94635.38;6201268;23;20054;-87
2024/03/23 22:46:00;;;;;;;0.50;0.50;;;;;;;4.78;64.30;94639.66;6202496;23;20018;-88
2024/03/23 22:48:31;;;;;;;1.10;0.68;;;;;;;5.10;63.52;94646.69;6225821;23;20004;-87
2024/03/23 22:50:58;;;;;;;0.90;0.55;;;;;;;5.34;63.07;94635.63;6226079;23;20057;-88
2024/03/23 22:53:25;;;;;;;1.15;0.50;;;;;;;5.20;62.71;94607.91;6225320;23;20034;-87
2024/03/23 22:55:52;;;;;;;0.82;0.50;;;;;;;5.53;62.53;94607.91;6226872;23;20015;-88
2024/03/23 22:58:18;;;;;;;0.40;0.40;;;;;;;5.77;61.26;94601.91;6206906;23;20012;-88
2024/03/23 23:00:48;;;;;;;1.25;0.70;;;;;;;5.48;62.35;94586.00;6230315;23;20004;-88
2024/03/23 23:03:15;;;;;;;0.80;0.60;;;;;;;5.18;63.13;94576.28;6225568;23;20004;-88
2024/03/23 23:05:41;;;;;;;1.75;0.60;;;;;;;5.46;62.04;94571.63;6195644;23;20012;-88
2024/03/23 23:08:07;;;;;;;1.77;0.70;;;;;;;5.36;62.49;94576.94;6180399;23;20069;-88
2024/03/23 23:10:33;;;;;;;1.63;0.50;;;;;;;5.28;62.46;94569.22;6206511;23;20020;-88
2024/03/23 23:12:58;;;;;;;0.88;0.50;;;;;;;5.42;62.16;94576.31;6210130;23;20012;-88
2024/03/23 23:15:24;;;;;;;1.98;0.65;;;;;;;5.40;62.14;94569.69;6234896;23;20007;-88
2024/03/23 23:17:49;;;;;;;0.50;0.50;;;;;;;5.57;61.86;94555.81;6184035;23;20004;-88
2024/03/23 23:20:16;;;;;;;0.60;0.50;;;;;;;5.49;62.95;94553.25;6238034;23;19996;-89
2024/03/23 23:22:44;;;;;;;0.45;0.45;;;;;;;5.74;61.56;94535.19;6233669;23;20043;-88
2024/03/23 23:25:10;;;;;;;0.70;0.50;;;;;;;5.70;62.30;94544.22;6236342;23;19988;-89
2024/03/23 23:27:37;;;;;;;1.20;0.60;;;;;;;5.73;61.83;94539.53;6212547;23;20095;-89
2024/03/23 23:30:06;;;;;;;0.57;0.57;;;;;;;5.75;62.17;94540.19;6236490;23;20016;-88
2024/03/23 23:32:31;;;;;;;0.60;0.60;;;;;;;5.87;61.61;94538.84;6235704;23;20007;-89
2024/03/23 23:34:59;;;;;;;0.80;0.50;;;;;;;5.97;60.85;94536.09;6211410;23;20008;-88
2024/03/23 23:37:25;;;;;;;0.77;0.70;;;;;;;5.90;61.66;94524.00;6236787;23;20052;-88
2024/03/23 23:39:50;;;;;;;1.20;0.80;;;;;;;5.85;61.46;94514.97;6236404;23;20012;-88
2024/03/23 23:42:16;;;;;;;0.93;0.68;;;;;;;5.96;62.02;94528.53;6210926;23;20024;-89
2024/03/23 23:44:41;;;;;;;1.17;0.60;;;;;;;5.80;61.48;94503.53;6236752;23;20032;-88
2024/03/23 23:47:06;;;;;;;0.90;0.50;;;;;;;6.04;61.32;94500.91;6211754;23;20014;-89
2024/03/23 23:49:32;;;;;;;1.70;1.15;;;;;;;5.99;61.12;94489.47;6186902;23;20019;-90
2024/03/23 23:51:57;;;;;;;3.70;1.20;;;;;;;6.20;60.71;94497.44;6186140;23;20012;-88
2024/03/23 23:54:26;;;;;;;1.42;0.65;;;;;;;6.19;60.70;94493.28;6229928;23;20007;-88
2024/03/23 23:56:51;;;;;;;0.70;0.47;;;;;;;6.09;60.74;94486.69;6203946;23;20015;-88
2024/03/23 23:59:17;;;;;;;0.70;0.50;;;;;;;6.02;60.46;94496.91;6201848;23;20008;-88
